Time;durP1;ratioP1;P1;durP2;ratioP2;P2;SDS_P1;SDS_P2;PMS_P1;PMS_P2;Temp;Humidity;BMP_temperature;BMP_pressure;BME280_temperature;BME280_humidity;BME280_pressure;Samples;Min_cycle;Max_cycle;Signal;HPM_P1;HPM_P2
2023/03/26 00:01:35;;;;;;;0.55;0.20;;;;;;;10.51;59.77;99223.06;4395786;32;20133;-81
2023/03/26 00:04:00;;;;;;;0.05;0.03;;;;;;;10.48;59.77;99223.19;4409404;32;20395;-82
2023/03/26 00:06:30;;;;;;;0.60;0.30;;;;;;;10.60;59.77;99214.88;4395672;32;20118;-83
2023/03/26 00:08:56;;;;;;;1.15;0.17;;;;;;;10.52;59.77;99214.34;4370755;32;20106;-82
2023/03/26 00:11:22;;;;;;;1.25;0.30;;;;;;;10.50;59.77;99216.19;4383025;32;20414;-82
2023/03/26 00:13:48;;;;;;;1.27;0.22;;;;;;;10.56;59.78;99213.31;4395494;32;20106;-83
2023/03/26 00:16:15;;;;;;;0.30;0.28;;;;;;;10.50;59.78;99223.13;4382942;32;20473;-82
2023/03/26 00:18:41;;;;;;;0.80;0.30;;;;;;;10.42;59.77;99229.50;4383029;32;20094;-83
2023/03/26 00:21:07;;;;;;;0.55;0.20;;;;;;;10.38;59.76;99221.84;4395518;32;20085;-83
2023/03/26 00:23:34;;;;;;;0.35;0.20;;;;;;;10.26;59.76;99224.94;4409431;32;20098;-83
2023/03/26 00:26:00;;;;;;;0.30;0.20;;;;;;;10.30;59.76;99227.38;4383143;32;20109;-83
2023/03/26 00:28:26;;;;;;;0.82;0.35;;;;;;;10.31;59.75;99216.06;4382878;32;20098;-82
2023/03/26 00:30:59;;;;;;;0.30;0.20;;;;;;;10.39;59.76;99215.75;4395413;32;20157;-82
2023/03/26 00:33:24;;;;;;;4.57;0.35;;;;;;;10.31;59.76;99213.44;4383089;32;20137;-82
2023/03/26 00:35:54;;;;;;;0.70;0.20;;;;;;;10.24;59.76;99212.00;4409287;32;20141;-83
2023/03/26 00:38:21;;;;;;;0.20;0.10;;;;;;;10.05;59.74;99211.00;4382947;32;20093;-83
2023/03/26 00:40:49;;;;;;;0.55;0.30;;;;;;;10.07;59.74;99220.41;4383052;32;20082;-83
2023/03/26 00:43:18;;;;;;;1.58;0.32;;;;;;;10.01;59.75;99207.66;4395599;32;20101;-83
2023/03/26 00:45:51;;;;;;;0.62;0.10;;;;;;;10.11;59.75;99211.59;4383368;32;20132;-83
2023/03/26 00:48:24;;;;;;;2.15;0.20;;;;;;;10.16;59.75;99198.41;4395830;32;20451;-82
2023/03/26 00:50:50;;;;;;;0.80;0.37;;;;;;;10.01;59.75;99199.00;4395435;32;20473;-82
2023/03/26 00:53:16;;;;;;;0.40;0.20;;;;;;;10.00;59.74;99202.53;4394624;32;25189;-82
2023/03/26 00:55:42;;;;;;;0.68;0.20;;;;;;;10.01;59.73;99197.25;4370171;32;20122;-83
2023/03/26 00:58:10;;;;;;;1.10;0.30;;;;;;;9.91;59.74;99195.06;4382434;32;20090;-83
2023/03/26 01:00:47;;;;;;;3.25;0.30;;;;;;;9.91;59.73;99195.91;4383260;32;20123;-82
2023/03/26 01:03:13;;;;;;;0.30;0.10;;;;;;;9.90;59.73;99194.22;4395255;32;20153;-82
2023/03/26 01:05:44;;;;;;;2.75;0.20;;;;;;;9.66;59.72;99195.97;4395218;32;20132;-82
2023/03/26 01:08:29;;;;;;;0.55;0.20;;;;;;;9.80;59.74;99195.47;4370421;32;20156;-82
2023/03/26 01:11:02;;;;;;;0.57;0.10;;;;;;;9.77;59.72;99200.78;4383024;32;20358;-82
2023/03/26 01:13:29;;;;;;;0.85;0.20;;;;;;;9.77;59.72;99206.84;4384073;32;20414;-82
2023/03/26 01:15:56;;;;;;;1.15;0.30;;;;;;;9.78;59.72;99199.88;4370395;32;20149;-83
2023/03/26 01:18:25;;;;;;;2.05;0.10;;;;;;;9.78;59.73;99203.34;4395411;32;20090;-83
2023/03/26 01:20:57;;;;;;;0.50;0.25;;;;;;;9.74;59.73;99206.09;4370451;32;20119;-82
2023/03/26 01:23:26;;;;;;;0.93;0.10;;;;;;;9.80;59.73;99205.88;4383724;32;20141;-83
2023/03/26 01:25:56;;;;;;;0.35;0.20;;;;;;;9.90;59.73;99211.56;4382659;32;20109;-83
2023/03/26 01:28:24;;;;;;;0.60;0.30;;;;;;;9.76;59.73;99204.28;4370308;32;20380;-83
2023/03/26 01:31:16;;;;;;;1.70;0.77;;;;;;;9.75;59.73;99213.00;4382708;32;20125;-83
2023/03/26 01:34:02;;;;;;;0.30;0.20;;;;;;;9.77;59.72;99201.63;4387021;32;20136;-83
2023/03/26 01:36:43;;;;;;;0.93;0.17;;;;;;;9.64;59.72;99215.97;4370686;32;20129;-81
2023/03/26 01:39:29;;;;;;;3.92;0.30;;;;;;;9.62;59.72;99222.13;4382684;32;20106;-81
2023/03/26 01:42:07;;;;;;;1.92;0.30;;;;;;;9.77;59.73;99211.19;4394996;32;20090;-81
2023/03/26 01:44:45;;;;;;;0.52;0.20;;;;;;;9.84;59.73;99212.66;4370484;32;20140;-82
2023/03/26 01:47:11;;;;;;;0.25;0.13;;;;;;;9.72;59.73;99210.53;4383681;32;20217;-82
2023/03/26 01:49:36;;;;;;;0.35;0.10;;;;;;;9.66;59.72;99208.13;4382410;32;20428;-82
2023/03/26 01:52:14;;;;;;;0.40;0.40;;;;;;;9.70;59.72;99207.97;4394887;32;20415;-82
2023/03/26 01:54:40;;;;;;;0.50;0.30;;;;;;;9.78;59.72;99210.28;4380844;32;20521;-81
2023/03/26 01:57:14;;;;;;;3.40;0.50;;;;;;;9.74;59.73;99208.72;4366722;32;20102;-82
2023/03/26 01:59:58;;;;;;;0.47;0.15;;;;;;;9.75;59.73;99207.81;4379814;32;20458;-82
2023/03/26 02:02:54;;;;;;;3.47;0.40;;;;;;;9.71;59.72;99212.28;4393816;32;20086;-82
2023/03/26 02:05:20;;;;;;;0.52;0.28;;;;;;;9.64;59.71;99209.94;4381272;32;20440;-82
2023/03/26 02:08:04;;;;;;;2.83;0.35;;;;;;;9.73;59.73;99220.84;4379737;32;20110;-82
2023/03/26 02:10:33;;;;;;;0.57;0.40;;;;;;;9.60;59.72;99216.16;4379223;32;20086;-82
2023/03/26 02:12:59;;;;;;;0.50;0.30;;;;;;;9.59;59.72;99217.06;4367651;32;20086;-82
2023/03/26 02:15:24;;;;;;;1.80;0.30;;;;;;;9.51;59.72;99223.37;4367017;32;20766;-82
2023/03/26 02:17:51;;;;;;;0.70;0.20;;;;;;;9.68;59.73;99220.16;4393335;32;20178;-83
2023/03/26 02:20:17;;;;;;;0.60;0.37;;;;;;;9.77;59.72;99225.03;4367380;32;20139;-82
2023/03/26 02:22:44;;;;;;;0.95;0.20;;;;;;;9.68;59.73;99227.94;4367364;32;20095;-82
2023/03/26 02:25:11;;;;;;;1.27;0.30;;;;;;;9.63;59.72;99232.47;4379494;32;20095;-82
2023/03/26 02:27:37;;;;;;;0.68;0.30;;;;;;;9.73;59.73;99226.06;4366639;32;20103;-83
2023/03/26 02:30:05;;;;;;;1.17;0.30;;;;;;;9.83;59.74;99222.19;4366947;32;20108;-82
2023/03/26 02:32:31;;;;;;;0.52;0.20;;;;;;;9.66;59.73;99228.91;4367104;32;20447;-83
2023/03/26 02:34:56;;;;;;;1.45;0.40;;;;;;;9.59;59.72;99224.84;4367021;32;20154;-83
2023/03/26 02:37:21;;;;;;;0.77;0.22;;;;;;;9.66;59.72;99218.50;4366745;32;20467;-83
2023/03/26 02:39:47;;;;;;;0.93;0.20;;;;;;;9.67;59.73;99213.25;4379145;32;20138;-83
2023/03/26 02:42:12;;;;;;;1.15;0.30;;;;;;;9.63;59.72;99206.50;4393095;32;20150;-83
2023/03/26 02:44:39;;;;;;;1.33;0.30;;;;;;;9.69;59.72;99202.81;4366814;32;20120;-82
2023/03/26 02:47:04;;;;;;;2.03;0.50;;;;;;;9.50;59.72;99207.84;4379351;32;20160;-83
2023/03/26 02:49:30;;;;;;;0.30;0.30;;;;;;;9.59;59.72;99201.47;4392891;32;20086;-82
2023/03/26 02:51:55;;;;;;;1.30;0.40;;;;;;;9.52;59.72;99190.47;4378240;32;23084;-82
2023/03/26 02:54:21;;;;;;;0.45;0.20;;;;;;;9.42;59.71;99196.88;4391044;32;20154;-83
2023/03/26 02:56:47;;;;;;;1.25;0.22;;;;;;;9.37;59.71;99196.19;4408030;32;20128;-82
2023/03/26 02:59:13;;;;;;;1.83;0.40;;;;;;;9.49;59.72;99195.78;4393544;32;25121;-83
2023/03/26 03:01:41;;;;;;;0.62;0.30;;;;;;;9.16;59.69;99205.59;4407942;32;20120;-81
2023/03/26 03:04:08;;;;;;;0.77;0.35;;;;;;;9.30;59.71;99195.59;4381972;32;20387;-81
2023/03/26 03:06:34;;;;;;;3.03;0.45;;;;;;;9.06;59.69;99199.03;4381529;32;20122;-81
2023/03/26 03:09:01;;;;;;;2.92;0.40;;;;;;;9.09;59.69;99191.97;4380957;32;21311;-82
2023/03/26 03:11:26;;;;;;;1.90;0.30;;;;;;;9.11;59.68;99192.78;4381939;32;20156;-82
2023/03/26 03:13:52;;;;;;;1.20;0.30;;;;;;;9.32;59.70;99185.97;4380868;32;20169;-82
2023/03/26 03:16:18;;;;;;;0.20;0.20;;;;;;;9.17;59.70;99189.97;4381346;32;20148;-82
2023/03/26 03:18:45;;;;;;;6.50;0.85;;;;;;;9.31;59.70;99186.88;4381481;32;20089;-81
2023/03/26 03:21:10;;;;;;;0.65;0.30;;;;;;;9.35;59.71;99191.06;4370846;32;20090;-82
2023/03/26 03:23:36;;;;;;;1.02;0.30;;;;;;;9.21;59.70;99194.13;4409418;32;20128;-82
2023/03/26 03:26:01;;;;;;;0.75;0.40;;;;;;;9.31;59.70;99201.63;4381337;32;20663;-82
2023/03/26 03:28:27;;;;;;;1.12;0.30;;;;;;;9.25;59.69;99207.03;4394688;32;20121;-82
2023/03/26 03:30:52;;;;;;;0.47;0.30;;;;;;;9.05;59.69;99198.19;4393824;32;20477;-81
2023/03/26 03:33:21;;;;;;;3.90;0.32;;;;;;;9.23;59.70;99196.72;4395657;32;20160;-82
2023/03/26 03:35:48;;;;;;;4.07;0.50;;;;;;;9.03;59.69;99194.81;4383084;32;20135;-81
2023/03/26 03:38:14;;;;;;;3.15;0.40;;;;;;;8.96;59.68;99189.84;4383321;32;20093;-82
2023/03/26 03:40:39;;;;;;;0.90;0.43;;;;;;;8.74;59.66;99194.91;4409477;32;20146;-81
2023/03/26 03:43:05;;;;;;;0.93;0.32;;;;;;;8.61;59.66;99203.13;4395718;32;20192;-81
2023/03/26 03:45:31;;;;;;;1.08;0.40;;;;;;;8.59;59.67;99209.25;4409346;32;20101;-82
2023/03/26 03:47:56;;;;;;;2.92;0.52;;;;;;;8.55;59.66;99213.72;4395710;32;20197;-82
2023/03/26 03:50:21;;;;;;;0.90;0.40;;;;;;;8.67;59.67;99203.81;4395562;32;20090;-82
2023/03/26 03:52:47;;;;;;;0.28;0.28;;;;;;;8.49;59.65;99205.25;4395544;32;20204;-83
2023/03/26 03:55:12;;;;;;;1.25;0.30;;;;;;;8.61;59.66;99213.50;4395409;32;20410;-82
2023/03/26 03:57:39;;;;;;;1.92;0.37;;;;;;;8.59;59.67;99214.44;4395615;32;20468;-82
2023/03/26 04:00:07;;;;;;;2.35;0.40;;;;;;;8.48;59.65;99213.94;4383292;32;20102;-82
2023/03/26 04:02:33;;;;;;;2.42;0.60;;;;;;;8.42;59.65;99220.16;4395634;32;20098;-82
2023/03/26 04:04:59;;;;;;;0.80;0.30;;;;;;;8.21;59.64;99226.00;4395550;32;20163;-82
2023/03/26 04:07:25;;;;;;;0.55;0.30;;;;;;;8.14;59.64;99230.53;4382866;32;20516;-82
2023/03/26 04:09:50;;;;;;;0.60;0.30;;;;;;;8.09;59.64;99235.00;4382943;32;20098;-82
2023/03/26 04:12:16;;;;;;;0.55;0.30;;;;;;;8.06;59.63;99227.31;4409055;32;20124;-82
2023/03/26 04:14:41;;;;;;;0.90;0.40;;;;;;;7.98;59.62;99232.72;4382742;32;20101;-82
2023/03/26 04:17:07;;;;;;;1.80;0.65;;;;;;;7.97;59.62;99233.59;4395206;32;20160;-82
2023/03/26 04:19:33;;;;;;;2.05;1.00;;;;;;;8.08;59.64;99230.72;4395598;32;20501;-83
2023/03/26 04:22:01;;;;;;;1.02;0.50;;;;;;;8.09;59.64;99227.22;4382818;32;20169;-83
2023/03/26 04:24:28;;;;;;;1.23;0.70;;;;;;;8.08;59.64;99224.69;4370641;32;20125;-83
2023/03/26 04:27:00;;;;;;;1.87;0.60;;;;;;;8.15;59.64;99218.41;4382792;32;20116;-83
2023/03/26 04:29:26;;;;;;;1.98;0.68;;;;;;;8.02;59.63;99221.34;4383765;32;20544;-82
2023/03/26 04:31:57;;;;;;;0.70;0.50;;;;;;;8.04;59.63;99223.91;4381869;32;20131;-82
2023/03/26 04:34:23;;;;;;;1.67;0.80;;;;;;;8.14;59.64;99225.34;4383569;32;20494;-83
2023/03/26 04:36:53;;;;;;;1.55;0.60;;;;;;;7.93;59.63;99231.16;4382939;32;20132;-82
2023/03/26 04:39:18;;;;;;;1.77;1.00;;;;;;;8.10;59.63;99230.66;4383427;32;20086;-83
2023/03/26 04:41:44;;;;;;;5.15;0.95;;;;;;;8.11;59.63;99228.03;4382644;32;20658;-82
2023/03/26 04:44:10;;;;;;;6.10;0.90;;;;;;;8.08;59.64;99216.91;4395351;32;20135;-83
2023/03/26 04:46:36;;;;;;;4.10;0.95;;;;;;;7.97;59.62;99240.53;4382917;32;20153;-83
2023/03/26 04:49:01;;;;;;;2.65;1.25;;;;;;;8.01;59.63;99231.78;4408728;32;20081;-83
2023/03/26 04:51:33;;;;;;;5.35;1.98;;;;;;;7.94;59.63;99231.13;4382634;32;20112;-83
2023/03/26 04:53:59;;;;;;;3.80;1.30;;;;;;;7.95;59.63;99227.62;4382977;32;20117;-83
2023/03/26 04:56:46;;;;;;;2.90;1.50;;;;;;;8.01;59.63;99236.97;4382488;32;20101;-83
2023/03/26 04:59:24;;;;;;;3.83;1.87;;;;;;;8.15;59.64;99236.56;4409019;32;20109;-83
2023/03/26 05:01:51;;;;;;;5.62;2.25;;;;;;;8.16;59.64;99236.50;4383701;32;20127;-84
2023/03/26 05:04:16;;;;;;;3.53;1.80;;;;;;;8.23;59.64;99231.97;4382471;32;20106;-85
2023/03/26 05:06:42;;;;;;;3.40;1.70;;;;;;;8.32;59.65;99236.91;4382336;32;20654;-84
2023/03/26 05:09:09;;;;;;;3.00;1.75;;;;;;;8.47;59.65;99228.66;4382432;32;20121;-84
2023/03/26 05:11:35;;;;;;;4.75;1.65;;;;;;;8.54;59.66;99229.31;4394833;32;20110;-85
2023/03/26 05:14:00;;;;;;;3.08;1.90;;;;;;;8.57;59.66;99234.41;4382627;32;20784;-84
2023/03/26 05:16:26;;;;;;;3.12;1.67;;;;;;;8.90;59.69;99237.63;4394746;32;20151;-85
2023/03/26 05:18:52;;;;;;;3.12;1.50;;;;;;;9.00;59.68;99225.22;4382249;32;20394;-85
2023/03/26 05:21:18;;;;;;;5.68;1.50;;;;;;;9.35;59.71;99237.81;4394999;32;20141;-84
2023/03/26 05:23:43;;;;;;;4.43;1.33;;;;;;;9.34;59.71;99235.28;4382458;32;20145;-84
2023/03/26 05:26:09;;;;;;;2.37;1.20;;;;;;;9.41;59.71;99232.41;4381992;32;24796;-84
2023/03/26 05:28:35;;;;;;;4.25;1.45;;;;;;;9.61;59.72;99228.25;4381946;32;20129;-85
2023/03/26 05:31:00;;;;;;;2.80;1.37;;;;;;;9.62;59.72;99227.34;4395244;32;20107;-85
2023/03/26 05:33:26;;;;;;;3.72;1.67;;;;;;;9.54;59.71;99228.47;4369923;32;20102;-84
2023/03/26 05:36:05;;;;;;;4.87;1.67;;;;;;;9.73;59.73;99222.59;4408860;32;20374;-84
2023/03/26 05:38:31;;;;;;;4.18;1.50;;;;;;;9.73;59.73;99214.81;4382733;32;20097;-85
2023/03/26 05:41:07;;;;;;;2.60;1.25;;;;;;;9.91;59.74;99216.69;4394954;32;20145;-85
2023/03/26 05:43:32;;;;;;;4.72;1.60;;;;;;;10.00;59.74;99210.31;4382136;32;20136;-85
2023/03/26 05:45:58;;;;;;;2.60;1.48;;;;;;;9.97;59.74;99211.28;4382355;32;20090;-85
2023/03/26 05:48:24;;;;;;;2.28;1.17;;;;;;;10.02;59.73;99211.09;4382322;32;20093;-85
2023/03/26 05:50:50;;;;;;;2.28;1.25;;;;;;;10.07;59.74;99212.62;4382337;32;20379;-85
2023/03/26 05:53:17;;;;;;;4.45;1.60;;;;;;;9.98;59.74;99209.53;4382348;32;20110;-85
2023/03/26 05:55:44;;;;;;;4.82;1.27;;;;;;;10.10;59.75;99214.25;4382613;32;20094;-85
2023/03/26 05:58:10;;;;;;;2.95;1.12;;;;;;;10.14;59.74;99202.81;4381904;32;20548;-85
2023/03/26 06:00:37;;;;;;;2.47;1.02;;;;;;;10.26;59.76;99215.37;4382137;32;20141;-85
2023/03/26 06:03:11;;;;;;;1.95;1.23;;;;;;;10.36;59.76;99208.06;4382539;32;20097;-85
2023/03/26 06:05:37;;;;;;;2.80;1.48;;;;;;;10.53;59.76;99204.78;4395368;32;20090;-85
2023/03/26 06:08:03;;;;;;;1.58;0.73;;;;;;;10.35;59.76;99199.41;4382330;32;20151;-85
2023/03/26 06:10:28;;;;;;;1.08;0.77;;;;;;;10.52;59.77;99209.16;4382112;32;20440;-84
2023/03/26 06:12:54;;;;;;;2.60;0.45;;;;;;;10.63;59.78;99204.34;4381885;32;20101;-83
2023/03/26 06:15:19;;;;;;;4.00;0.50;;;;;;;11.03;59.80;99197.47;4369649;32;20157;-84
2023/03/26 06:17:45;;;;;;;0.80;0.70;;;;;;;11.32;59.81;99193.63;4382247;32;20133;-84
2023/03/26 06:20:11;;;;;;;3.85;0.70;;;;;;;11.41;59.82;99193.22;4394604;32;20132;-84
2023/03/26 06:22:37;;;;;;;1.15;0.43;;;;;;;11.37;59.82;99192.53;4394573;32;20213;-84
2023/03/26 06:25:02;;;;;;;1.52;0.35;;;;;;;11.66;59.83;99193.81;4382034;32;20141;-85
2023/03/26 06:27:28;;;;;;;2.55;0.57;;;;;;;11.77;59.84;99195.09;4397178;32;20112;-84
2023/03/26 06:29:53;;;;;;;1.25;0.50;;;;;;;11.88;59.84;99200.69;4395004;32;20213;-83
2023/03/26 06:32:19;;;;;;;1.12;0.40;;;;;;;12.03;59.85;99202.56;4408368;32;20201;-84
2023/03/26 06:34:44;;;;;;;5.60;0.80;;;;;;;12.27;59.86;99201.41;4369083;32;20153;-85
2023/03/26 06:37:10;;;;;;;2.08;0.70;;;;;;;12.47;59.88;99202.25;4394542;32;20082;-84
2023/03/26 06:39:35;;;;;;;1.77;0.60;;;;;;;12.58;59.89;99203.41;4381836;32;20577;-84
2023/03/26 06:42:01;;;;;;;2.95;0.43;;;;;;;12.81;59.90;99207.50;4394079;32;20114;-84
2023/03/26 06:44:26;;;;;;;1.37;0.43;;;;;;;12.94;59.90;99199.91;4381392;32;20165;-84
2023/03/26 06:46:51;;;;;;;1.73;0.73;;;;;;;13.26;59.93;99203.53;4408132;32;20081;-83
2023/03/26 06:49:17;;;;;;;4.60;0.40;;;;;;;13.44;59.93;99202.56;4380977;32;23509;-84
2023/03/26 06:51:42;;;;;;;1.55;0.55;;;;;;;13.42;59.93;99193.94;4394314;32;20193;-85
2023/03/26 06:54:09;;;;;;;1.90;0.50;;;;;;;13.73;59.95;99187.13;4393938;32;20479;-84
2023/03/26 06:56:34;;;;;;;3.42;0.75;;;;;;;14.02;59.96;99196.00;4383487;32;20081;-84
2023/03/26 06:59:00;;;;;;;2.78;0.62;;;;;;;14.05;59.96;99203.66;4395478;32;23722;-84
2023/03/26 07:01:25;;;;;;;0.98;0.50;;;;;;;14.45;59.98;99199.72;4395717;32;21171;-84
2023/03/26 07:03:50;;;;;;;2.33;0.55;;;;;;;14.54;59.98;99198.34;4395627;32;20483;-85
2023/03/26 07:06:16;;;;;;;4.00;0.43;;;;;;;14.61;59.99;99199.66;4383175;32;20134;-84
2023/03/26 07:08:41;;;;;;;2.30;0.62;;;;;;;14.69;59.99;99198.31;4382818;32;21767;-83
2023/03/26 07:11:07;;;;;;;3.22;0.47;;;;;;;14.71;60.00;99196.44;4395475;32;20170;-84
2023/03/26 07:13:32;;;;;;;2.05;0.40;;;;;;;14.72;60.00;99195.53;4395079;32;20091;-83
2023/03/26 07:15:58;;;;;;;1.08;0.40;;;;;;;14.83;60.00;99196.66;4382901;32;20107;-83
2023/03/26 07:18:23;;;;;;;2.85;0.80;;;;;;;14.97;60.01;99201.94;4409234;32;20129;-84
2023/03/26 07:20:49;;;;;;;3.00;1.02;;;;;;;14.94;60.00;99199.50;4409471;32;20189;-84
2023/03/26 07:23:18;;;;;;;2.67;0.50;;;;;;;14.95;60.01;99191.56;4383245;32;20439;-83
2023/03/26 07:25:45;;;;;;;1.95;0.95;;;;;;;14.97;60.01;99201.94;4384080;32;20144;-83
2023/03/26 07:28:11;;;;;;;1.90;0.60;;;;;;;15.10;60.02;99194.19;4383280;32;20114;-82
2023/03/26 07:30:58;;;;;;;1.40;0.37;;;;;;;15.13;60.02;99188.75;4409637;32;20167;-84
2023/03/26 07:33:51;;;;;;;0.50;0.30;;;;;;;15.25;60.04;99190.66;4409792;32;20736;-85
2023/03/26 07:36:16;;;;;;;1.30;0.52;;;;;;;15.36;60.04;99185.59;4395776;32;20110;-84
2023/03/26 07:38:59;;;;;;;2.80;0.75;;;;;;;15.53;60.04;99192.47;4395734;32;20113;-84
2023/03/26 07:41:44;;;;;;;2.33;0.55;;;;;;;15.72;60.05;99192.22;4396256;32;20179;-84
2023/03/26 07:44:30;;;;;;;2.33;0.60;;;;;;;15.89;60.06;99187.59;4383799;32;20110;-84
2023/03/26 07:46:58;;;;;;;2.40;0.62;;;;;;;16.20;60.08;99189.12;4395711;32;20121;-85
2023/03/26 07:49:24;;;;;;;2.28;0.52;;;;;;;16.46;60.10;99190.06;4383591;32;20102;-85
2023/03/26 07:51:49;;;;;;;1.45;0.98;;;;;;;16.49;60.09;99187.25;4383242;32;20166;-85
2023/03/26 07:54:16;;;;;;;1.25;0.70;;;;;;;16.61;60.10;99188.25;4395602;32;20094;-85
2023/03/26 07:57:02;;;;;;;1.00;0.50;;;;;;;16.67;60.10;99182.59;4395606;32;20160;-84
2023/03/26 07:59:32;;;;;;;2.15;0.70;;;;;;;16.90;60.12;99193.37;4397913;32;20105;-84
2023/03/26 08:02:20;;;;;;;2.92;0.90;;;;;;;16.98;60.12;99180.56;4383355;32;20177;-85
2023/03/26 08:05:00;;;;;;;1.50;0.60;;;;;;;17.22;60.13;99181.53;4409461;32;20167;-84
2023/03/26 08:08:10;;;;;;;1.95;0.50;;;;;;;17.09;60.13;99189.41;4395469;32;20124;-85
2023/03/26 08:10:38;;;;;;;1.05;0.60;;;;;;;17.28;60.13;99180.28;4385419;32;20221;-85
2023/03/26 08:13:33;;;;;;;1.05;0.50;;;;;;;17.45;60.14;99183.41;4409296;32;20129;-85
2023/03/26 08:16:18;;;;;;;1.27;0.43;;;;;;;17.27;60.14;99181.19;4395379;32;20097;-85
2023/03/26 08:19:09;;;;;;;1.92;0.50;;;;;;;17.12;60.13;99183.94;4395599;32;20094;-85
2023/03/26 08:21:38;;;;;;;2.50;0.60;;;;;;;17.28;60.14;99183.75;4395418;32;20109;-86
2023/03/26 08:24:09;;;;;;;1.25;0.60;;;;;;;17.37;60.14;99179.63;4382714;32;20443;-85
2023/03/26 08:26:44;;;;;;;1.75;0.47;;;;;;;17.31;60.14;99178.28;4395462;32;20121;-85
2023/03/26 08:29:40;;;;;;;0.85;0.40;;;;;;;17.43;60.15;99171.31;4395237;32;20257;-85
2023/03/26 08:32:08;;;;;;;3.62;2.08;;;;;;;17.65;60.16;99163.59;4401236;32;20149;-85
2023/03/26 08:34:34;;;;;;;4.30;1.25;;;;;;;17.71;60.16;99154.47;4382590;32;20473;-84
2023/03/26 08:37:00;;;;;;;15.77;4.07;;;;;;;17.66;60.16;99162.66;4395259;32;20141;-85
2023/03/26 08:39:27;;;;;;;20.15;6.30;;;;;;;17.84;60.18;99163.19;4409133;32;20132;-84
2023/03/26 08:42:13;;;;;;;12.93;5.53;;;;;;;17.95;60.18;99155.34;4382896;32;20486;-84
2023/03/26 08:45:25;;;;;;;4.97;1.92;;;;;;;18.08;60.19;99152.69;4395269;32;20171;-87
2023/03/26 08:48:24;;;;;;;22.83;7.22;;;;;;;18.10;60.18;99161.31;4367504;32;20106;-84
2023/03/26 08:51:03;;;;;;;12.67;4.27;;;;;;;18.28;60.19;99149.44;4409024;32;20105;-85
2023/03/26 08:54:02;;;;;;;11.35;3.55;;;;;;;18.36;60.19;99151.50;4395328;32;20113;-85
2023/03/26 08:56:41;;;;;;;11.37;3.10;;;;;;;18.41;60.20;99144.94;4374962;32;20113;-85
2023/03/26 08:59:28;;;;;;;15.40;4.05;;;;;;;18.47;60.21;99150.75;4395612;32;20481;-85
2023/03/26 09:02:18;;;;;;;11.18;3.90;;;;;;;18.50;60.21;99147.87;4409038;32;20094;-84
2023/03/26 09:05:08;;;;;;;9.02;2.58;;;;;;;18.52;60.20;99143.31;4394974;32;20106;-84
2023/03/26 09:08:13;;;;;;;11.15;4.53;;;;;;;18.74;60.22;99139.97;4409108;32;20094;-85
2023/03/26 09:10:49;;;;;;;9.13;4.00;;;;;;;18.79;60.22;99138.66;4394554;32;20120;-85
2023/03/26 09:13:26;;;;;;;13.35;6.22;;;;;;;19.07;60.23;99133.91;4383093;32;20090;-85
2023/03/26 09:16:00;;;;;;;2.75;1.23;;;;;;;19.19;60.24;99131.19;4394464;32;20186;-85
2023/03/26 09:18:33;;;;;;;11.27;3.75;;;;;;;19.36;60.25;99129.03;4394313;32;20102;-84
2023/03/26 09:21:26;;;;;;;16.98;6.22;;;;;;;19.38;60.25;99127.09;4395191;32;20089;-85
2023/03/26 09:24:14;;;;;;;6.30;2.87;;;;;;;19.38;60.25;99124.47;4392649;32;20418;-85
2023/03/26 09:26:54;;;;;;;1.58;0.90;;;;;;;19.50;60.26;99120.88;4395221;32;20102;-85
2023/03/26 09:29:44;;;;;;;3.83;0.85;;;;;;;19.58;60.26;99118.50;4395282;32;20638;-85
2023/03/26 09:32:41;;;;;;;0.82;0.30;;;;;;;19.55;60.26;99122.22;4396419;32;20090;-85
2023/03/26 09:35:43;;;;;;;1.77;0.80;;;;;;;19.49;60.26;99112.13;4408887;32;20427;-83
2023/03/26 09:38:28;;;;;;;4.12;1.90;;;;;;;19.54;60.27;99114.41;4378117;32;20106;-84
2023/03/26 09:41:01;;;;;;;3.03;1.00;;;;;;;19.80;60.28;99110.53;4394989;32;20544;-84
2023/03/26 09:43:39;;;;;;;1.77;1.05;;;;;;;19.73;60.27;99096.16;4394900;32;20480;-83
2023/03/26 09:46:25;;;;;;;1.08;0.68;;;;;;;19.58;60.26;99102.66;4394910;32;20530;-83
2023/03/26 09:49:00;;;;;;;1.35;0.52;;;;;;;19.60;60.26;99098.09;4401068;32;223791;-83
2023/03/26 09:51:28;;;;;;;2.03;0.70;;;;;;;19.26;60.25;99095.44;4394866;32;20179;-83
2023/03/26 09:54:13;;;;;;;3.62;1.55;;;;;;;19.04;60.23;99092.78;4408663;32;20090;-83
2023/03/26 09:57:05;;;;;;;2.22;0.75;;;;;;;18.94;60.24;99084.75;4394960;32;20090;-84
2023/03/26 09:59:41;;;;;;;1.83;0.60;;;;;;;19.05;60.24;99069.88;4394771;32;20173;-83
2023/03/26 10:02:57;;;;;;;2.58;0.52;;;;;;;19.08;60.24;99057.28;4394716;32;20105;-84
2023/03/26 10:05:33;;;;;;;0.93;0.60;;;;;;;18.99;60.24;99060.66;4374596;32;20150;-84
2023/03/26 10:08:19;;;;;;;4.78;1.50;;;;;;;18.90;60.23;99059.56;4395218;32;20108;-83
2023/03/26 10:11:15;;;;;;;2.05;0.50;;;;;;;18.82;60.22;99063.75;4394647;32;20136;-83
2023/03/26 10:13:55;;;;;;;2.10;1.10;;;;;;;18.75;60.22;99081.00;4394708;32;20110;-84
2023/03/26 10:16:45;;;;;;;2.20;1.23;;;;;;;18.75;60.22;99086.28;4408406;32;20154;-84
2023/03/26 10:19:32;;;;;;;3.03;0.70;;;;;;;18.44;60.20;99091.16;4408530;32;20488;-84
2023/03/26 10:22:11;;;;;;;1.15;0.65;;;;;;;18.34;60.20;99095.47;4382395;32;20155;-84
2023/03/26 10:24:58;;;;;;;1.20;0.70;;;;;;;17.77;60.17;99093.50;4386653;32;20118;-84
2023/03/26 10:27:36;;;;;;;1.20;0.70;;;;;;;17.31;60.15;99082.75;4380113;32;20081;-85
2023/03/26 10:30:35;;;;;;;1.37;0.57;;;;;;;17.07;60.14;99078.25;4402113;32;20347;-83
2023/03/26 10:33:07;;;;;;;4.85;0.73;;;;;;;17.05;60.13;99076.66;4384481;32;20127;-84
2023/03/26 10:35:47;;;;;;;4.37;0.70;;;;;;;17.06;60.13;99075.72;4404425;32;20090;-83
2023/03/26 10:38:34;;;;;;;3.65;0.70;;;;;;;16.90;60.12;99064.56;4386705;32;20375;-81
2023/03/26 10:41:04;;;;;;;1.98;0.47;;;;;;;16.76;60.12;99060.25;4392567;32;20113;-83
2023/03/26 10:44:04;;;;;;;2.62;0.60;;;;;;;16.70;60.12;99048.37;4392308;32;20102;-83
2023/03/26 10:46:30;;;;;;;2.50;0.60;;;;;;;16.75;60.11;99038.38;4394769;32;20124;-83
2023/03/26 10:49:26;;;;;;;2.08;0.50;;;;;;;16.91;60.13;99042.59;4392426;32;20453;-84
2023/03/26 10:51:57;;;;;;;0.95;0.52;;;;;;;17.07;60.14;99033.53;4396122;32;20535;-82
2023/03/26 10:55:04;;;;;;;2.58;0.70;;;;;;;17.31;60.15;99020.44;4380084;32;20153;-82
2023/03/26 10:57:44;;;;;;;1.00;0.30;;;;;;;17.47;60.16;99026.28;4328805;33;20481;-84
2023/03/26 11:00:23;;;;;;;5.18;0.50;;;;;;;17.40;60.15;99019.78;4384929;32;20159;-84
2023/03/26 11:03:27;;;;;;;6.72;1.42;;;;;;;17.46;60.16;99014.06;4390131;32;20111;-83
2023/03/26 11:06:19;;;;;;;6.57;0.60;;;;;;;17.52;60.16;99004.09;4392725;32;20125;-85
2023/03/26 11:08:49;;;;;;;0.75;0.50;;;;;;;17.32;60.15;99011.59;4363270;32;20125;-83
2023/03/26 11:11:28;;;;;;;1.25;0.60;;;;;;;17.28;60.14;99009.31;4391089;32;20136;-82
2023/03/26 11:14:09;;;;;;;2.30;0.50;;;;;;;17.45;60.16;98993.97;4391395;32;20090;-85
2023/03/26 11:16:40;;;;;;;3.83;0.73;;;;;;;17.43;60.15;98984.50;4385211;32;20121;-84
2023/03/26 11:19:35;;;;;;;1.00;0.43;;;;;;;17.38;60.14;98986.66;4392358;32;20380;-85
2023/03/26 11:22:39;;;;;;;1.75;0.70;;;;;;;17.57;60.16;98981.75;4386477;32;20193;-84
2023/03/26 11:25:26;;;;;;;1.87;0.75;;;;;;;17.56;60.17;98976.59;4354902;32;20143;-83
2023/03/26 11:28:15;;;;;;;3.78;1.00;;;;;;;17.44;60.15;98973.88;4392307;32;20102;-83
2023/03/26 11:31:03;;;;;;;3.50;0.90;;;;;;;17.43;60.16;98974.00;4392461;32;20116;-83
2023/03/26 11:33:35;;;;;;;2.25;1.20;;;;;;;17.63;60.17;98960.22;4392441;32;20404;-82
2023/03/26 11:36:13;;;;;;;2.92;0.93;;;;;;;17.64;60.16;98958.44;4379677;32;20485;-84
2023/03/26 11:38:46;;;;;;;1.60;0.73;;;;;;;18.05;60.19;98948.34;4379733;32;20592;-82
2023/03/26 11:41:14;;;;;;;2.03;0.55;;;;;;;18.12;60.19;98932.06;4380778;32;20098;-83
2023/03/26 11:43:40;;;;;;;0.98;0.50;;;;;;;18.40;60.20;98926.34;4394496;32;20108;-82
2023/03/26 11:46:08;;;;;;;2.67;0.98;;;;;;;18.50;60.21;98908.06;4394455;32;20144;-83
2023/03/26 11:48:43;;;;;;;0.95;0.65;;;;;;;18.54;60.22;98920.88;4381757;32;20102;-83
2023/03/26 11:51:22;;;;;;;2.03;0.60;;;;;;;18.53;60.21;98899.91;4382123;32;20127;-82
2023/03/26 11:53:48;;;;;;;1.90;0.70;;;;;;;18.52;60.20;98893.78;4382010;32;20102;-82
2023/03/26 11:56:27;;;;;;;1.92;0.50;;;;;;;18.51;60.21;98886.84;4381751;32;20094;-82
2023/03/26 11:58:55;;;;;;;2.20;0.80;;;;;;;18.66;60.22;98882.19;4394275;32;20098;-83
2023/03/26 12:01:39;;;;;;;0.47;0.30;;;;;;;18.90;60.23;98877.59;4382041;32;20115;-85
2023/03/26 12:04:12;;;;;;;0.60;0.30;;;;;;;19.23;60.25;98874.06;4395820;32;20086;-84